sensor_id;sensor_type;location;lat;lon;timestamp;temperature;humidity
44117;DHT22;29781;49.480;8.512;2023-05-10T00:02:23;15.30;99.90
44117;DHT22;29781;49.480;8.512;2023-05-10T00:04:49;15.40;99.90
44117;DHT22;29781;49.480;8.512;2023-05-10T00:07:15;15.50;99.90
44117;DHT22;29781;49.480;8.512;2023-05-10T00:09:43;15.40;99.90
44117;DHT22;29781;49.480;8.512;2023-05-10T00:12:08;15.60;99.90
44117;DHT22;29781;49.480;8.512;2023-05-10T00:14:34;15.50;99.90
44117;DHT22;29781;49.480;8.512;2023-05-10T00:17:00;15.50;99.90
44117;DHT22;29781;49.480;8.512;2023-05-10T00:19:26;15.50;99.90
44117;DHT22;29781;49.480;8.512;2023-05-10T00:21:51;15.50;99.90
44117;DHT22;29781;49.480;8.512;2023-05-10T00:24:17;15.40;99.90
44117;DHT22;29781;49.480;8.512;2023-05-10T00:26:42;15.40;99.90
44117;DHT22;29781;49.480;8.512;2023-05-10T00:29:08;15.40;99.90
44117;DHT22;29781;49.480;8.512;2023-05-10T00:31:33;15.50;99.90
44117;DHT22;29781;49.480;8.512;2023-05-10T00:33:59;15.40;99.90
44117;DHT22;29781;49.480;8.512;2023-05-10T00:36:24;15.20;99.90
44117;DHT22;29781;49.480;8.512;2023-05-10T00:38:50;15.30;99.90
44117;DHT22;29781;49.480;8.512;2023-05-10T00:41:16;15.30;99.90
44117;DHT22;29781;49.480;8.512;2023-05-10T00:43:41;15.20;99.90
44117;DHT22;29781;49.480;8.512;2023-05-10T00:46:07;15.10;99.90
44117;DHT22;29781;49.480;8.512;2023-05-10T00:48:33;15.20;99.90
44117;DHT22;29781;49.480;8.512;2023-05-10T00:51:01;15.20;99.90
44117;DHT22;29781;49.480;8.512;2023-05-10T00:53:26;15.30;99.90
44117;DHT22;29781;49.480;8.512;2023-05-10T00:55:52;15.30;99.90
44117;DHT22;29781;49.480;8.512;2023-05-10T00:58:18;15.30;99.90
44117;DHT22;29781;49.480;8.512;2023-05-10T01:00:46;15.30;99.90
44117;DHT22;29781;49.480;8.512;2023-05-10T01:03:13;15.30;99.90
44117;DHT22;29781;49.480;8.512;2023-05-10T01:05:39;15.40;99.90
44117;DHT22;29781;49.480;8.512;2023-05-10T01:08:05;15.40;99.90
44117;DHT22;29781;49.480;8.512;2023-05-10T01:10:31;15.30;99.90
44117;DHT22;29781;49.480;8.512;2023-05-10T01:12:59;15.40;99.90
44117;DHT22;29781;49.480;8.512;2023-05-10T01:15:24;15.40;99.90
44117;DHT22;29781;49.480;8.512;2023-05-10T01:17:51;15.40;99.90
44117;DHT22;29781;49.480;8.512;2023-05-10T01:20:17;15.30;99.90
44117;DHT22;29781;49.480;8.512;2023-05-10T01:31:21;15.40;99.90
44117;DHT22;29781;49.480;8.512;2023-05-10T01:34:04;15.30;99.90
44117;DHT22;29781;49.480;8.512;2023-05-10T01:39:32;15.30;99.90
44117;DHT22;29781;49.480;8.512;2023-05-10T01:42:28;15.20;99.90
44117;DHT22;29781;49.480;8.512;2023-05-10T01:45:07;15.20;99.90
44117;DHT22;29781;49.480;8.512;2023-05-10T01:47:38;15.30;99.90
44117;DHT22;29781;49.480;8.512;2023-05-10T01:50:15;15.20;99.90
44117;DHT22;29781;49.480;8.512;2023-05-10T01:52:42;15.20;99.90
44117;DHT22;29781;49.480;8.512;2023-05-10T01:55:13;15.20;99.90
44117;DHT22;29781;49.480;8.512;2023-05-10T01:57:39;15.10;99.90
44117;DHT22;29781;49.480;8.512;2023-05-10T02:00:07;15.10;99.90
44117;DHT22;29781;49.480;8.512;2023-05-10T02:02:37;15.10;99.90
44117;DHT22;29781;49.480;8.512;2023-05-10T02:05:05;15.10;99.90
44117;DHT22;29781;49.480;8.512;2023-05-10T02:07:35;15.20;99.90
44117;DHT22;29781;49.480;8.512;2023-05-10T02:10:04;15.10;99.90
44117;DHT22;29781;49.480;8.512;2023-05-10T02:12:32;15.00;99.90
44117;DHT22;29781;49.480;8.512;2023-05-10T02:15:02;15.10;99.90
44117;DHT22;29781;49.480;8.512;2023-05-10T02:17:28;15.10;99.90
44117;DHT22;29781;49.480;8.512;2023-05-10T02:19:56;15.10;99.90
44117;DHT22;29781;49.480;8.512;2023-05-10T02:22:24;15.10;99.90
44117;DHT22;29781;49.480;8.512;2023-05-10T02:24:50;15.10;99.90
44117;DHT22;29781;49.480;8.512;2023-05-10T02:27:17;15.10;99.90
44117;DHT22;29781;49.480;8.512;2023-05-10T02:29:45;15.00;99.90
44117;DHT22;29781;49.480;8.512;2023-05-10T02:32:12;15.00;99.90
44117;DHT22;29781;49.480;8.512;2023-05-10T02:34:38;14.90;99.90
44117;DHT22;29781;49.480;8.512;2023-05-10T02:37:04;14.80;99.90
44117;DHT22;29781;49.480;8.512;2023-05-10T02:39:31;14.80;99.90
44117;DHT22;29781;49.480;8.512;2023-05-10T02:41:57;14.80;99.90
44117;DHT22;29781;49.480;8.512;2023-05-10T02:44:23;14.80;99.90
44117;DHT22;29781;49.480;8.512;2023-05-10T02:46:51;14.80;99.90
44117;DHT22;29781;49.480;8.512;2023-05-10T02:49:18;14.80;99.90
44117;DHT22;29781;49.480;8.512;2023-05-10T02:51:49;14.80;99.90
44117;DHT22;29781;49.480;8.512;2023-05-10T02:54:19;14.70;99.90
44117;DHT22;29781;49.480;8.512;2023-05-10T02:56:51;14.70;99.90
44117;DHT22;29781;49.480;8.512;2023-05-10T02:59:19;14.70;99.90
44117;DHT22;29781;49.480;8.512;2023-05-10T03:01:44;14.70;99.90
44117;DHT22;29781;49.480;8.512;2023-05-10T03:04:10;14.70;99.90
44117;DHT22;29781;49.480;8.512;2023-05-10T03:06:36;14.70;99.90
44117;DHT22;29781;49.480;8.512;2023-05-10T03:09:01;14.70;99.90
44117;DHT22;29781;49.480;8.512;2023-05-10T03:11:39;14.70;99.90
44117;DHT22;29781;49.480;8.512;2023-05-10T03:14:25;14.80;99.90
44117;DHT22;29781;49.480;8.512;2023-05-10T03:20:01;14.70;99.90
44117;DHT22;29781;49.480;8.512;2023-05-10T03:22:44;14.70;99.90
44117;DHT22;29781;49.480;8.512;2023-05-10T03:25:11;14.60;99.90
44117;DHT22;29781;49.480;8.512;2023-05-10T03:27:40;14.50;99.90
44117;DHT22;29781;49.480;8.512;2023-05-10T03:30:08;14.70;99.90
44117;DHT22;29781;49.480;8.512;2023-05-10T03:32:35;14.60;99.90
44117;DHT22;29781;49.480;8.512;2023-05-10T03:35:06;14.50;99.90
44117;DHT22;29781;49.480;8.512;2023-05-10T03:37:31;14.50;99.90
44117;DHT22;29781;49.480;8.512;2023-05-10T03:39:57;14.60;99.90
44117;DHT22;29781;49.480;8.512;2023-05-10T03:42:22;14.50;99.90
44117;DHT22;29781;49.480;8.512;2023-05-10T03:44:48;14.60;99.90
44117;DHT22;29781;49.480;8.512;2023-05-10T03:47:14;14.60;99.90
44117;DHT22;29781;49.480;8.512;2023-05-10T03:49:40;14.70;99.90
44117;DHT22;29781;49.480;8.512;2023-05-10T03:52:05;14.70;99.90
44117;DHT22;29781;49.480;8.512;2023-05-10T03:54:31;14.70;99.90
44117;DHT22;29781;49.480;8.512;2023-05-10T03:56:57;14.60;99.90
44117;DHT22;29781;49.480;8.512;2023-05-10T03:59:23;14.60;99.90
44117;DHT22;29781;49.480;8.512;2023-05-10T04:01:48;14.60;99.90
44117;DHT22;29781;49.480;8.512;2023-05-10T04:04:14;14.50;99.90
44117;DHT22;29781;49.480;8.512;2023-05-10T04:06:39;14.40;99.90
44117;DHT22;29781;49.480;8.512;2023-05-10T04:09:05;14.40;99.90
44117;DHT22;29781;49.480;8.512;2023-05-10T04:11:30;14.30;99.90
44117;DHT22;29781;49.480;8.512;2023-05-10T04:13:56;14.30;99.90
44117;DHT22;29781;49.480;8.512;2023-05-10T04:16:22;14.40;99.90
44117;DHT22;29781;49.480;8.512;2023-05-10T04:18:47;14.30;99.90
44117;DHT22;29781;49.480;8.512;2023-05-10T04:21:14;14.40;99.90
44117;DHT22;29781;49.480;8.512;2023-05-10T04:23:40;14.40;99.90
44117;DHT22;29781;49.480;8.512;2023-05-10T04:26:06;14.40;99.90
44117;DHT22;29781;49.480;8.512;2023-05-10T04:28:31;14.40;99.90
44117;DHT22;29781;49.480;8.512;2023-05-10T04:31:04;14.40;99.90
44117;DHT22;29781;49.480;8.512;2023-05-10T04:33:29;14.30;99.90
44117;DHT22;29781;49.480;8.512;2023-05-10T04:35:55;14.30;99.90
44117;DHT22;29781;49.480;8.512;2023-05-10T04:38:21;14.30;99.90
44117;DHT22;29781;49.480;8.512;2023-05-10T04:40:46;14.30;99.90
44117;DHT22;29781;49.480;8.512;2023-05-10T04:43:12;14.20;99.90
44117;DHT22;29781;49.480;8.512;2023-05-10T04:45:37;14.20;99.90
44117;DHT22;29781;49.480;8.512;2023-05-10T04:48:03;14.20;99.90
44117;DHT22;29781;49.480;8.512;2023-05-10T04:50:28;14.10;99.90
44117;DHT22;29781;49.480;8.512;2023-05-10T04:52:54;14.10;99.90
44117;DHT22;29781;49.480;8.512;2023-05-10T04:55:19;14.10;99.90
44117;DHT22;29781;49.480;8.512;2023-05-10T04:57:45;14.10;99.90
44117;DHT22;29781;49.480;8.512;2023-05-10T05:00:12;14.10;99.90
44117;DHT22;29781;49.480;8.512;2023-05-10T05:02:38;14.20;99.90
44117;DHT22;29781;49.480;8.512;2023-05-10T05:05:04;14.20;99.90
44117;DHT22;29781;49.480;8.512;2023-05-10T05:07:29;14.20;99.90
44117;DHT22;29781;49.480;8.512;2023-05-10T05:09:56;14.20;99.90
44117;DHT22;29781;49.480;8.512;2023-05-10T05:12:21;14.20;99.90
44117;DHT22;29781;49.480;8.512;2023-05-10T05:14:47;14.20;99.90
44117;DHT22;29781;49.480;8.512;2023-05-10T05:17:12;14.20;99.90
44117;DHT22;29781;49.480;8.512;2023-05-10T05:19:39;14.30;99.90
44117;DHT22;29781;49.480;8.512;2023-05-10T05:22:06;14.30;99.90
44117;DHT22;29781;49.480;8.512;2023-05-10T05:24:36;14.30;99.90
44117;DHT22;29781;49.480;8.512;2023-05-10T05:27:03;14.30;99.90
44117;DHT22;29781;49.480;8.512;2023-05-10T05:29:29;14.30;99.90
44117;DHT22;29781;49.480;8.512;2023-05-10T05:31:55;14.30;99.90
44117;DHT22;29781;49.480;8.512;2023-05-10T05:34:20;14.40;99.90
44117;DHT22;29781;49.480;8.512;2023-05-10T05:36:47;14.50;99.90
44117;DHT22;29781;49.480;8.512;2023-05-10T05:39:13;14.60;99.90
44117;DHT22;29781;49.480;8.512;2023-05-10T05:41:38;14.60;99.90
44117;DHT22;29781;49.480;8.512;2023-05-10T05:44:04;14.60;99.90
44117;DHT22;29781;49.480;8.512;2023-05-10T05:46:29;14.60;99.90
44117;DHT22;29781;49.480;8.512;2023-05-10T05:48:55;14.60;99.90
44117;DHT22;29781;49.480;8.512;2023-05-10T05:51:21;14.50;99.90
44117;DHT22;29781;49.480;8.512;2023-05-10T05:53:46;14.50;99.90
44117;DHT22;29781;49.480;8.512;2023-05-10T05:56:12;14.50;99.90
44117;DHT22;29781;49.480;8.512;2023-05-10T05:58:38;14.50;99.90
44117;DHT22;29781;49.480;8.512;2023-05-10T06:01:04;14.40;99.90
44117;DHT22;29781;49.480;8.512;2023-05-10T06:03:29;14.50;99.90
44117;DHT22;29781;49.480;8.512;2023-05-10T06:05:55;14.60;99.90
44117;DHT22;29781;49.480;8.512;2023-05-10T06:08:20;14.60;99.90
44117;DHT22;29781;49.480;8.512;2023-05-10T06:10:46;14.70;99.90
44117;DHT22;29781;49.480;8.512;2023-05-10T06:13:11;14.70;99.90
44117;DHT22;29781;49.480;8.512;2023-05-10T06:15:37;14.70;99.90
44117;DHT22;29781;49.480;8.512;2023-05-10T06:18:03;14.70;99.90
44117;DHT22;29781;49.480;8.512;2023-05-10T06:20:29;14.70;99.90
44117;DHT22;29781;49.480;8.512;2023-05-10T06:22:56;14.80;99.90
44117;DHT22;29781;49.480;8.512;2023-05-10T06:25:22;14.80;99.90
44117;DHT22;29781;49.480;8.512;2023-05-10T06:27:48;14.80;99.90
44117;DHT22;29781;49.480;8.512;2023-05-10T06:30:14;14.80;99.90
44117;DHT22;29781;49.480;8.512;2023-05-10T06:32:40;14.70;99.90
44117;DHT22;29781;49.480;8.512;2023-05-10T06:35:06;14.80;99.90
44117;DHT22;29781;49.480;8.512;2023-05-10T06:37:32;14.80;99.90
44117;DHT22;29781;49.480;8.512;2023-05-10T06:39:57;14.80;99.90
44117;DHT22;29781;49.480;8.512;2023-05-10T06:42:23;14.90;99.90
44117;DHT22;29781;49.480;8.512;2023-05-10T06:44:50;14.80;99.90
44117;DHT22;29781;49.480;8.512;2023-05-10T06:47:16;14.80;99.90
44117;DHT22;29781;49.480;8.512;2023-05-10T06:49:41;14.80;99.90
44117;DHT22;29781;49.480;8.512;2023-05-10T06:52:07;14.80;99.90
44117;DHT22;29781;49.480;8.512;2023-05-10T06:54:33;14.80;99.90
44117;DHT22;29781;49.480;8.512;2023-05-10T06:56:58;14.90;99.90
44117;DHT22;29781;49.480;8.512;2023-05-10T06:59:24;15.00;99.90
44117;DHT22;29781;49.480;8.512;2023-05-10T07:01:49;15.10;99.90
44117;DHT22;29781;49.480;8.512;2023-05-10T07:04:15;15.00;99.90
44117;DHT22;29781;49.480;8.512;2023-05-10T07:06:40;15.00;99.90
44117;DHT22;29781;49.480;8.512;2023-05-10T07:09:06;15.00;99.90
44117;DHT22;29781;49.480;8.512;2023-05-10T07:11:32;15.00;99.90
44117;DHT22;29781;49.480;8.512;2023-05-10T07:13:58;15.10;99.90
44117;DHT22;29781;49.480;8.512;2023-05-10T07:16:24;15.20;99.90
44117;DHT22;29781;49.480;8.512;2023-05-10T07:18:49;15.30;99.90
44117;DHT22;29781;49.480;8.512;2023-05-10T07:21:15;15.30;99.90
44117;DHT22;29781;49.480;8.512;2023-05-10T07:23:41;15.40;99.90
44117;DHT22;29781;49.480;8.512;2023-05-10T07:26:06;15.50;99.90
44117;DHT22;29781;49.480;8.512;2023-05-10T07:28:32;15.50;99.90
44117;DHT22;29781;49.480;8.512;2023-05-10T07:30:58;15.60;99.90
44117;DHT22;29781;49.480;8.512;2023-05-10T07:33:23;15.70;99.90
44117;DHT22;29781;49.480;8.512;2023-05-10T07:35:50;15.70;99.90
44117;DHT22;29781;49.480;8.512;2023-05-10T07:38:15;15.80;99.90
44117;DHT22;29781;49.480;8.512;2023-05-10T07:40:41;15.90;99.90
44117;DHT22;29781;49.480;8.512;2023-05-10T07:43:06;15.90;99.90
44117;DHT22;29781;49.480;8.512;2023-05-10T07:45:32;15.90;99.90
44117;DHT22;29781;49.480;8.512;2023-05-10T07:47:58;16.00;99.90
44117;DHT22;29781;49.480;8.512;2023-05-10T07:50:23;16.00;99.90
44117;DHT22;29781;49.480;8.512;2023-05-10T07:52:49;16.10;99.90
44117;DHT22;29781;49.480;8.512;2023-05-10T07:55:14;16.20;99.90
44117;DHT22;29781;49.480;8.512;2023-05-10T07:57:41;16.10;99.90
44117;DHT22;29781;49.480;8.512;2023-05-10T08:00:07;16.10;99.90
44117;DHT22;29781;49.480;8.512;2023-05-10T08:02:35;16.20;99.90
44117;DHT22;29781;49.480;8.512;2023-05-10T08:05:00;16.40;99.90
44117;DHT22;29781;49.480;8.512;2023-05-10T08:07:26;16.40;99.90
44117;DHT22;29781;49.480;8.512;2023-05-10T08:09:51;16.30;99.90
44117;DHT22;29781;49.480;8.512;2023-05-10T08:12:17;16.30;99.90
44117;DHT22;29781;49.480;8.512;2023-05-10T08:14:45;16.10;99.90
44117;DHT22;29781;49.480;8.512;2023-05-10T08:17:11;16.20;99.90
44117;DHT22;29781;49.480;8.512;2023-05-10T08:19:36;16.10;99.90
44117;DHT22;29781;49.480;8.512;2023-05-10T08:22:02;16.10;99.90
44117;DHT22;29781;49.480;8.512;2023-05-10T08:24:27;16.10;99.90
44117;DHT22;29781;49.480;8.512;2023-05-10T08:26:53;16.10;99.90
44117;DHT22;29781;49.480;8.512;2023-05-10T08:29:18;16.20;99.90
44117;DHT22;29781;49.480;8.512;2023-05-10T08:31:44;16.30;99.90
44117;DHT22;29781;49.480;8.512;2023-05-10T08:34:10;16.30;99.90
44117;DHT22;29781;49.480;8.512;2023-05-10T08:36:36;16.40;99.90
44117;DHT22;29781;49.480;8.512;2023-05-10T08:39:01;16.30;99.90
44117;DHT22;29781;49.480;8.512;2023-05-10T08:41:27;16.50;99.90
44117;DHT22;29781;49.480;8.512;2023-05-10T08:43:54;16.60;99.90
44117;DHT22;29781;49.480;8.512;2023-05-10T08:46:21;16.50;99.90
44117;DHT22;29781;49.480;8.512;2023-05-10T08:48:48;16.50;99.90
44117;DHT22;29781;49.480;8.512;2023-05-10T08:51:20;16.50;99.90
44117;DHT22;29781;49.480;8.512;2023-05-10T08:53:47;16.40;99.90
44117;DHT22;29781;49.480;8.512;2023-05-10T08:56:12;16.40;99.90
44117;DHT22;29781;49.480;8.512;2023-05-10T08:58:43;16.40;99.90
44117;DHT22;29781;49.480;8.512;2023-05-10T09:01:09;16.30;99.90
44117;DHT22;29781;49.480;8.512;2023-05-10T09:03:38;16.30;99.90
44117;DHT22;29781;49.480;8.512;2023-05-10T09:06:04;16.40;99.90
44117;DHT22;29781;49.480;8.512;2023-05-10T09:08:30;16.30;99.90
44117;DHT22;29781;49.480;8.512;2023-05-10T09:10:56;16.30;99.90
44117;DHT22;29781;49.480;8.512;2023-05-10T09:13:23;16.30;99.90
44117;DHT22;29781;49.480;8.512;2023-05-10T09:15:49;16.30;99.90
44117;DHT22;29781;49.480;8.512;2023-05-10T09:18:16;16.20;99.90
44117;DHT22;29781;49.480;8.512;2023-05-10T09:20:41;16.10;99.90
44117;DHT22;29781;49.480;8.512;2023-05-10T09:23:07;15.90;99.90
44117;DHT22;29781;49.480;8.512;2023-05-10T09:25:33;15.80;99.90
44117;DHT22;29781;49.480;8.512;2023-05-10T09:27:59;15.70;99.90
44117;DHT22;29781;49.480;8.512;2023-05-10T09:30:26;15.70;99.90
44117;DHT22;29781;49.480;8.512;2023-05-10T09:35:29;15.90;99.90
44117;DHT22;29781;49.480;8.512;2023-05-10T09:37:57;16.00;99.90
44117;DHT22;29781;49.480;8.512;2023-05-10T09:40:24;16.10;99.90
44117;DHT22;29781;49.480;8.512;2023-05-10T09:42:57;16.20;99.90
44117;DHT22;29781;49.480;8.512;2023-05-10T09:45:24;16.20;99.90
44117;DHT22;29781;49.480;8.512;2023-05-10T09:47:50;16.20;99.90
44117;DHT22;29781;49.480;8.512;2023-05-10T09:50:16;16.20;99.90
44117;DHT22;29781;49.480;8.512;2023-05-10T09:52:55;16.20;99.90
44117;DHT22;29781;49.480;8.512;2023-05-10T09:55:46;16.20;99.90
44117;DHT22;29781;49.480;8.512;2023-05-10T09:58:12;16.20;99.90
44117;DHT22;29781;49.480;8.512;2023-05-10T10:00:40;16.30;99.90
44117;DHT22;29781;49.480;8.512;2023-05-10T10:03:06;16.00;99.90
44117;DHT22;29781;49.480;8.512;2023-05-10T10:05:40;16.00;99.90
44117;DHT22;29781;49.480;8.512;2023-05-10T10:08:06;15.90;99.90
44117;DHT22;29781;49.480;8.512;2023-05-10T10:10:32;16.00;99.90
44117;DHT22;29781;49.480;8.512;2023-05-10T10:12:58;15.80;99.90
44117;DHT22;29781;49.480;8.512;2023-05-10T10:15:25;15.80;99.90
44117;DHT22;29781;49.480;8.512;2023-05-10T10:17:52;15.90;99.90
44117;DHT22;29781;49.480;8.512;2023-05-10T10:20:18;16.10;99.90
44117;DHT22;29781;49.480;8.512;2023-05-10T10:22:44;16.20;99.90
44117;DHT22;29781;49.480;8.512;2023-05-10T10:25:12;16.10;99.90
44117;DHT22;29781;49.480;8.512;2023-05-10T10:30:46;16.10;99.90
44117;DHT22;29781;49.480;8.512;2023-05-10T10:36:13;16.00;99.90
44117;DHT22;29781;49.480;8.512;2023-05-10T10:41:38;16.00;99.90
44117;DHT22;29781;49.480;8.512;2023-05-10T10:44:26;16.10;99.90
44117;DHT22;29781;49.480;8.512;2023-05-10T10:52:32;16.40;99.90
44117;DHT22;29781;49.480;8.512;2023-05-10T10:55:03;16.50;99.90
44117;DHT22;29781;49.480;8.512;2023-05-10T10:57:48;16.60;99.90
44117;DHT22;29781;49.480;8.512;2023-05-10T11:08:11;17.30;99.90
44117;DHT22;29781;49.480;8.512;2023-05-10T11:10:38;17.60;99.90
44117;DHT22;29781;49.480;8.512;2023-05-10T11:13:08;17.60;99.90
44117;DHT22;29781;49.480;8.512;2023-05-10T11:15:37;17.60;99.90
44117;DHT22;29781;49.480;8.512;2023-05-10T11:18:19;17.70;99.90
44117;DHT22;29781;49.480;8.512;2023-05-10T11:21:07;17.50;99.90
44117;DHT22;29781;49.480;8.512;2023-05-10T11:23:51;17.60;99.90
44117;DHT22;29781;49.480;8.512;2023-05-10T11:26:18;17.70;99.90
44117;DHT22;29781;49.480;8.512;2023-05-10T11:28:48;18.00;99.90
44117;DHT22;29781;49.480;8.512;2023-05-10T11:31:17;18.20;99.90
44117;DHT22;29781;49.480;8.512;2023-05-10T11:36:39;18.30;99.90
44117;DHT22;29781;49.480;8.512;2023-05-10T11:39:05;18.50;99.90
44117;DHT22;29781;49.480;8.512;2023-05-10T11:41:31;18.60;99.90
44117;DHT22;29781;49.480;8.512;2023-05-10T11:43:58;18.60;99.90
44117;DHT22;29781;49.480;8.512;2023-05-10T11:46:25;18.50;99.90
44117;DHT22;29781;49.480;8.512;2023-05-10T11:48:54;18.40;99.90
44117;DHT22;29781;49.480;8.512;2023-05-10T11:51:21;18.20;99.90
44117;DHT22;29781;49.480;8.512;2023-05-10T11:53:47;18.20;99.90
44117;DHT22;29781;49.480;8.512;2023-05-10T11:56:12;18.10;99.90
44117;DHT22;29781;49.480;8.512;2023-05-10T11:58:39;18.00;99.90
44117;DHT22;29781;49.480;8.512;2023-05-10T12:01:06;18.20;99.90
44117;DHT22;29781;49.480;8.512;2023-05-10T12:03:32;18.30;99.90
44117;DHT22;29781;49.480;8.512;2023-05-10T12:05:58;18.30;99.90
44117;DHT22;29781;49.480;8.512;2023-05-10T12:08:28;18.10;99.90
44117;DHT22;29781;49.480;8.512;2023-05-10T12:11:07;18.20;99.90
44117;DHT22;29781;49.480;8.512;2023-05-10T12:13:38;18.20;99.90
44117;DHT22;29781;49.480;8.512;2023-05-10T12:16:22;18.10;99.90
44117;DHT22;29781;49.480;8.512;2023-05-10T12:18:52;18.20;99.90
44117;DHT22;29781;49.480;8.512;2023-05-10T12:21:20;18.00;99.90
44117;DHT22;29781;49.480;8.512;2023-05-10T12:23:49;18.10;99.90
44117;DHT22;29781;49.480;8.512;2023-05-10T12:26:15;18.20;99.90
44117;DHT22;29781;49.480;8.512;2023-05-10T12:28:40;18.30;99.90
44117;DHT22;29781;49.480;8.512;2023-05-10T12:31:06;18.50;99.90
44117;DHT22;29781;49.480;8.512;2023-05-10T12:33:50;18.50;99.90
44117;DHT22;29781;49.480;8.512;2023-05-10T12:36:16;18.50;99.90
44117;DHT22;29781;49.480;8.512;2023-05-10T12:38:44;18.50;99.90
44117;DHT22;29781;49.480;8.512;2023-05-10T12:41:15;18.20;99.90
44117;DHT22;29781;49.480;8.512;2023-05-10T12:43:41;18.50;99.90
44117;DHT22;29781;49.480;8.512;2023-05-10T12:46:11;18.40;99.90
44117;DHT22;29781;49.480;8.512;2023-05-10T12:48:38;18.60;99.90
44117;DHT22;29781;49.480;8.512;2023-05-10T12:51:04;18.70;99.90
44117;DHT22;29781;49.480;8.512;2023-05-10T12:53:31;18.40;99.90
44117;DHT22;29781;49.480;8.512;2023-05-10T12:55:56;18.50;99.90
44117;DHT22;29781;49.480;8.512;2023-05-10T12:58:22;18.40;99.90
44117;DHT22;29781;49.480;8.512;2023-05-10T13:00:48;18.40;99.90
44117;DHT22;29781;49.480;8.512;2023-05-10T13:03:13;18.50;99.90
44117;DHT22;29781;49.480;8.512;2023-05-10T13:05:39;18.40;99.90
44117;DHT22;29781;49.480;8.512;2023-05-10T13:08:05;18.40;99.90
44117;DHT22;29781;49.480;8.512;2023-05-10T13:10:31;18.40;99.90
44117;DHT22;29781;49.480;8.512;2023-05-10T13:12:57;18.20;99.90
44117;DHT22;29781;49.480;8.512;2023-05-10T13:15:23;18.20;99.90
44117;DHT22;29781;49.480;8.512;2023-05-10T13:17:49;18.40;99.90
44117;DHT22;29781;49.480;8.512;2023-05-10T13:20:14;18.40;99.90
44117;DHT22;29781;49.480;8.512;2023-05-10T13:22:43;18.40;99.90
44117;DHT22;29781;49.480;8.512;2023-05-10T13:25:09;18.50;99.90
44117;DHT22;29781;49.480;8.512;2023-05-10T13:27:34;18.60;99.90
44117;DHT22;29781;49.480;8.512;2023-05-10T13:30:01;18.70;99.90
44117;DHT22;29781;49.480;8.512;2023-05-10T13:32:26;18.50;99.90
44117;DHT22;29781;49.480;8.512;2023-05-10T13:34:52;18.50;99.90
44117;DHT22;29781;49.480;8.512;2023-05-10T13:37:17;18.70;99.90
44117;DHT22;29781;49.480;8.512;2023-05-10T13:39:43;18.70;99.90
44117;DHT22;29781;49.480;8.512;2023-05-10T13:42:09;18.30;99.90
44117;DHT22;29781;49.480;8.512;2023-05-10T13:44:34;18.30;99.90
44117;DHT22;29781;49.480;8.512;2023-05-10T13:47:01;18.30;99.90
44117;DHT22;29781;49.480;8.512;2023-05-10T13:49:26;18.30;99.90
44117;DHT22;29781;49.480;8.512;2023-05-10T13:51:52;18.40;99.90
44117;DHT22;29781;49.480;8.512;2023-05-10T13:54:17;18.40;99.90
44117;DHT22;29781;49.480;8.512;2023-05-10T13:56:45;18.30;99.90
44117;DHT22;29781;49.480;8.512;2023-05-10T13:59:12;18.20;99.90
44117;DHT22;29781;49.480;8.512;2023-05-10T14:01:39;18.30;99.90
44117;DHT22;29781;49.480;8.512;2023-05-10T14:04:05;18.40;99.90
44117;DHT22;29781;49.480;8.512;2023-05-10T14:06:30;18.40;99.90
44117;DHT22;29781;49.480;8.512;2023-05-10T14:08:56;18.50;99.90
44117;DHT22;29781;49.480;8.512;2023-05-10T14:11:21;18.50;99.90
44117;DHT22;29781;49.480;8.512;2023-05-10T14:13:47;18.50;99.90
44117;DHT22;29781;49.480;8.512;2023-05-10T14:16:12;18.60;99.90
44117;DHT22;29781;49.480;8.512;2023-05-10T14:18:39;18.70;99.90
44117;DHT22;29781;49.480;8.512;2023-05-10T14:21:05;18.60;99.90
44117;DHT22;29781;49.480;8.512;2023-05-10T14:23:31;18.60;99.90
44117;DHT22;29781;49.480;8.512;2023-05-10T14:25:57;18.60;99.90
44117;DHT22;29781;49.480;8.512;2023-05-10T14:28:22;18.50;99.90
44117;DHT22;29781;49.480;8.512;2023-05-10T14:30:49;18.50;99.90
44117;DHT22;29781;49.480;8.512;2023-05-10T14:33:16;18.40;99.90
44117;DHT22;29781;49.480;8.512;2023-05-10T14:35:41;18.60;99.90
44117;DHT22;29781;49.480;8.512;2023-05-10T14:38:07;18.60;99.90
44117;DHT22;29781;49.480;8.512;2023-05-10T14:40:33;18.60;99.90
44117;DHT22;29781;49.480;8.512;2023-05-10T14:42:58;18.50;99.90
44117;DHT22;29781;49.480;8.512;2023-05-10T14:45:24;18.50;99.90
44117;DHT22;29781;49.480;8.512;2023-05-10T14:47:49;18.50;99.90
44117;DHT22;29781;49.480;8.512;2023-05-10T14:50:15;18.60;99.90
44117;DHT22;29781;49.480;8.512;2023-05-10T14:52:42;18.70;99.90
44117;DHT22;29781;49.480;8.512;2023-05-10T14:55:08;18.70;99.90
44117;DHT22;29781;49.480;8.512;2023-05-10T14:57:33;18.80;99.90
44117;DHT22;29781;49.480;8.512;2023-05-10T14:59:59;18.80;99.90
44117;DHT22;29781;49.480;8.512;2023-05-10T15:02:25;18.80;99.90
44117;DHT22;29781;49.480;8.512;2023-05-10T15:04:50;18.80;99.90
44117;DHT22;29781;49.480;8.512;2023-05-10T15:07:16;18.70;99.90
44117;DHT22;29781;49.480;8.512;2023-05-10T15:09:44;18.70;99.90
44117;DHT22;29781;49.480;8.512;2023-05-10T15:12:09;18.60;99.90
44117;DHT22;29781;49.480;8.512;2023-05-10T15:14:35;18.50;99.90
44117;DHT22;29781;49.480;8.512;2023-05-10T15:17:01;18.40;99.90
44117;DHT22;29781;49.480;8.512;2023-05-10T15:19:27;18.30;99.90
44117;DHT22;29781;49.480;8.512;2023-05-10T15:21:54;18.40;99.90
44117;DHT22;29781;49.480;8.512;2023-05-10T15:24:20;18.40;99.90
44117;DHT22;29781;49.480;8.512;2023-05-10T15:26:46;18.50;99.90
44117;DHT22;29781;49.480;8.512;2023-05-10T15:29:12;18.60;99.90
44117;DHT22;29781;49.480;8.512;2023-05-10T15:31:48;18.60;99.90
44117;DHT22;29781;49.480;8.512;2023-05-10T15:34:13;18.50;99.90
44117;DHT22;29781;49.480;8.512;2023-05-10T15:36:39;18.50;99.90
44117;DHT22;29781;49.480;8.512;2023-05-10T15:39:05;18.60;99.90
44117;DHT22;29781;49.480;8.512;2023-05-10T15:41:30;18.60;99.90
44117;DHT22;29781;49.480;8.512;2023-05-10T15:43:57;18.70;99.90
44117;DHT22;29781;49.480;8.512;2023-05-10T15:46:25;18.80;99.90
44117;DHT22;29781;49.480;8.512;2023-05-10T15:48:50;18.70;99.90
44117;DHT22;29781;49.480;8.512;2023-05-10T15:51:16;18.80;99.90
44117;DHT22;29781;49.480;8.512;2023-05-10T15:53:42;19.00;99.90
44117;DHT22;29781;49.480;8.512;2023-05-10T15:56:10;19.20;99.90
44117;DHT22;29781;49.480;8.512;2023-05-10T15:58:35;19.10;99.90
44117;DHT22;29781;49.480;8.512;2023-05-10T16:01:01;19.10;99.90
44117;DHT22;29781;49.480;8.512;2023-05-10T16:03:26;19.10;99.90
44117;DHT22;29781;49.480;8.512;2023-05-10T16:05:52;19.10;99.90
44117;DHT22;29781;49.480;8.512;2023-05-10T16:08:18;19.00;99.90
44117;DHT22;29781;49.480;8.512;2023-05-10T16:10:43;18.80;99.90
44117;DHT22;29781;49.480;8.512;2023-05-10T16:13:09;18.90;99.90